TimeEDT,TemperatureF,Dew PointF,Humidity,Sea Level PressureIn,VisibilityMPH,Wind Direction,Wind SpeedMPH,Gust SpeedMPH,PrecipitationIn,Events,Conditions,WindDirDegrees,DateUTC
12:51 AM,53.1,45.0,74,30.39,10.0,NE,15.0,26.5,N/A,,Overcast,40,2013-04-22 04:51:00
1:51 AM,53.1,46.0,77,30.37,10.0,NE,16.1,31.1,N/A,,Partly Cloudy,40,2013-04-22 05:51:00
2:51 AM,53.1,46.9,80,30.34,10.0,NNE,15.0,28.8,N/A,,Mostly Cloudy,30,2013-04-22 06:51:00
3:51 AM,53.1,46.9,80,30.33,10.0,NNE,16.1,31.1,N/A,,Overcast,30,2013-04-22 07:51:00
4:26 AM,53.6,46.4,77,30.33,10.0,NE,16.1,26.5,N/A,,Overcast,40,2013-04-22 08:26:00
4:41 AM,53.6,46.4,77,30.32,10.0,NNE,18.4,33.4,N/A,,Overcast,30,2013-04-22 08:41:00
4:51 AM,54.0,46.9,77,30.31,10.0,NE,17.3,29.9,N/A,,Overcast,40,2013-04-22 08:51:00
5:51 AM,54.0,48.0,80,30.31,10.0,NE,16.1,29.9,N/A,,Overcast,40,2013-04-22 09:51:00
6:07 AM,53.6,48.2,82,30.32,10.0,NE,15.0,31.1,N/A,,Overcast,40,2013-04-22 10:07:00
6:39 AM,53.6,50.0,88,30.31,6.0,NE,16.1,32.2,0.00,Rain,Light Rain,40,2013-04-22 10:39:00
6:51 AM,53.1,50.0,89,30.30,2.5,NE,13.8,33.4,0.00,Rain,Light Rain,40,2013-04-22 10:51:00
6:59 AM,53.6,50.0,88,30.30,4.0,NE,19.6,33.4,0.01,Rain,Light Rain,40,2013-04-22 10:59:00
7:51 AM,54.0,51.1,90,30.28,5.0,NE,18.4,32.2,0.01,Rain,Light Rain,40,2013-04-22 11:51:00
7:59 AM,53.6,51.8,94,30.28,6.0,NE,18.4,32.2,0.00,Rain,Light Rain,40,2013-04-22 11:59:00
8:51 AM,55.0,51.1,86,30.27,10.0,NE,17.3,28.8,0.00,,Overcast,40,2013-04-22 12:51:00
8:56 AM,55.4,51.8,88,30.28,8.0,NNE,17.3,33.4,N/A,,Overcast,30,2013-04-22 12:56:00
9:28 AM,55.4,51.8,88,30.27,5.0,NNE,15.0,29.9,N/A,,Overcast,30,2013-04-22 13:28:00
9:51 AM,55.0,52.0,89,30.26,5.0,NNE,18.4,35.7,N/A,,Overcast,20,2013-04-22 13:51:00
10:51 AM,55.9,53.1,90,30.25,5.0,NNE,13.8,28.8,0.00,,Overcast,30,2013-04-22 14:51:00
11:10 AM,55.4,53.6,94,30.24,2.5,NNE,16.1,33.4,0.00,Rain,Light Rain,30,2013-04-22 15:10:00
11:18 AM,55.4,53.6,94,30.25,4.0,NNE,15.0,29.9,0.00,Rain,Light Rain,30,2013-04-22 15:18:00
11:29 AM,55.4,53.6,94,30.25,2.5,NNE,12.7,29.9,0.01,Rain,Light Rain,30,2013-04-22 15:29:00
11:38 AM,55.4,53.6,94,30.25,3.0,NNE,13.8,26.5,0.01,Rain,Light Rain,30,2013-04-22 15:38:00
11:47 AM,55.4,53.6,94,30.25,2.5,NNE,15.0,26.5,0.01,Rain,Light Rain,20,2013-04-22 15:47:00
11:51 AM,55.9,53.1,90,30.25,4.0,NNE,12.7,26.5,0.01,Rain,Light Rain,30,2013-04-22 15:51:00
1:27 PM,57.2,55.4,94,30.21,1.5,NNE,12.7,26.5,0.02,Rain,Rain,30,2013-04-22 17:27:00
1:35 PM,57.2,55.4,94,30.20,3.0,NNE,12.7,24.2,0.03,Rain,Light Rain,30,2013-04-22 17:35:00
1:51 PM,57.0,55.0,93,30.19,9.0,NE,11.5,25.3,0.03,Rain,Light Rain,50,2013-04-22 17:51:00
2:51 PM,57.9,55.0,90,30.16,8.0,NNE,12.7,29.9,N/A,,Overcast,30,2013-04-22 18:51:00
3:51 PM,57.0,55.0,93,30.14,7.0,NNE,12.7,28.8,N/A,,Overcast,20,2013-04-22 19:51:00
4:51 PM,57.9,55.9,93,30.13,2.5,NNE,11.5,27.6,0.07,Rain,Light Rain,20,2013-04-22 20:51:00
5:00 PM,57.2,55.4,94,30.13,3.0,NNE,10.4,27.6,0.01,Rain,Light Rain,30,2013-04-22 21:00:00
5:11 PM,57.2,55.4,94,30.12,2.5,NE,11.5,26.5,0.03,Rain,Rain,40,2013-04-22 21:11:00
5:27 PM,57.2,55.4,94,30.13,3.0,NNE,13.8,21.9,0.05,Rain,Light Rain,20,2013-04-22 21:27:00
5:51 PM,57.0,55.0,93,30.13,2.5,NNE,15.0,25.3,0.09,Rain,Rain,30,2013-04-22 21:51:00
6:02 PM,57.2,55.4,94,30.13,1.8,NNE,10.4,23.0,0.04,Rain,Rain,30,2013-04-22 22:02:00
6:09 PM,57.2,55.4,94,30.13,2.5,NNE,11.5,25.3,0.05,Rain,Light Rain,30,2013-04-22 22:09:00
6:19 PM,57.2,55.4,94,30.13,3.0,NE,15.0,25.3,0.05,Rain,Light Rain,40,2013-04-22 22:19:00
6:51 PM,57.9,55.9,93,30.12,5.0,NE,10.4,25.3,0.06,,Overcast,40,2013-04-22 22:51:00
7:31 PM,57.2,55.4,94,30.12,5.0,NE,12.7,24.2,N/A,,Overcast,50,2013-04-22 23:31:00
7:51 PM,57.0,55.0,93,30.13,6.0,NE,9.2,20.7,N/A,,Overcast,40,2013-04-22 23:51:00
7:59 PM,57.2,55.4,94,30.13,5.0,NNE,10.4,18.4,N/A,,Overcast,30,2013-04-22 23:59:00
8:51 PM,57.9,55.9,93,30.14,6.0,NE,11.5,23.0,N/A,,Overcast,40,2013-04-23 00:51:00
9:51 PM,57.0,55.0,93,30.15,5.0,NE,11.5,21.9,N/A,,Overcast,40,2013-04-23 01:51:00
10:51 PM,57.0,55.0,93,30.14,4.0,NE,13.8,28.8,0.00,Rain,Light Rain,40,2013-04-23 02:51:00
11:51 PM,57.0,55.0,93,30.12,5.0,NNE,10.4,26.5,0.00,,Overcast,30,2013-04-23 03:51:00